Time;durP1;ratioP1;P1;durP2;ratioP2;P2;SDS_P1;SDS_P2;PMS_P1;PMS_P2;Temp;Humidity;BMP_temperature;BMP_pressure;BME280_temperature;BME280_humidity;BME280_pressure;Samples;Min_cycle;Max_cycle;Signal;HPM_P1;HPM_P2
2023/05/14 00:01:18;;;;;;;11.30;10.10;;;;;;;7.94;72.00;98325.77;106728;1276;22530;-75
2023/05/14 00:03:46;;;;;;;11.00;9.90;;;;;;;7.93;71.55;98324.96;106723;1276;25678;-75
2023/05/14 00:06:14;;;;;;;11.00;10.00;;;;;;;7.93;71.73;98327.05;106773;1276;24331;-75
2023/05/14 00:08:43;;;;;;;10.60;9.60;;;;;;;7.92;71.21;98322.77;106791;1276;22525;-75
2023/05/14 00:11:11;;;;;;;10.80;9.70;;;;;;;7.90;71.07;98324.55;106759;1275;22518;-75
2023/05/14 00:13:39;;;;;;;10.10;9.10;;;;;;;7.90;71.12;98324.66;106741;1276;25288;-74
2023/05/14 00:16:07;;;;;;;9.40;8.50;;;;;;;7.92;70.82;98323.10;106767;1276;22515;-76
2023/05/14 00:18:35;;;;;;;11.30;10.10;;;;;;;7.94;70.98;98322.81;106953;1276;22570;-76
2023/05/14 00:21:03;;;;;;;10.10;9.10;;;;;;;7.97;71.05;98322.00;106907;1276;22794;-82
2023/05/14 00:23:31;;;;;;;10.30;9.30;;;;;;;7.98;71.62;98321.42;107104;1276;22523;-82
2023/05/14 00:25:59;;;;;;;10.10;9.10;;;;;;;7.97;71.81;98315.89;107032;1276;24223;-81
2023/05/14 00:28:27;;;;;;;10.90;9.90;;;;;;;7.92;71.51;98318.09;107429;1276;24225;-81
2023/05/14 00:30:55;;;;;;;10.20;8.80;;;;;;;7.90;71.66;98322.17;107331;1253;24059;-81
2023/05/14 00:33:24;;;;;;;13.50;9.00;;;;;;;7.90;71.00;98324.97;106951;1276;25455;-84
2023/05/14 00:35:52;;;;;;;9.30;8.00;;;;;;;7.90;71.09;98325.24;107026;1276;22521;-82
2023/05/14 00:38:20;;;;;;;10.00;8.50;;;;;;;7.94;71.32;98328.29;107123;1276;23917;-81
2023/05/14 00:40:50;;;;;;;10.20;8.30;;;;;;;8.03;71.73;98327.42;107185;1276;22543;-81
2023/05/14 00:43:20;;;;;;;11.60;9.50;;;;;;;8.10;71.79;98326.61;107258;1253;24253;-82
2023/05/14 00:45:50;;;;;;;12.80;9.90;;;;;;;8.16;71.55;98323.95;107190;1276;25310;-82
2023/05/14 00:48:20;;;;;;;11.00;9.90;;;;;;;8.18;71.59;98323.05;107080;1276;25312;-82
2023/05/14 00:50:50;;;;;;;11.00;9.90;;;;;;;8.16;71.36;98318.38;107023;1276;22956;-83
2023/05/14 00:53:19;;;;;;;11.30;9.70;;;;;;;8.17;71.30;98321.81;106992;1272;22944;-80
2023/05/14 00:55:49;;;;;;;10.50;9.40;;;;;;;8.14;71.29;98319.45;106997;1276;22524;-81
2023/05/14 00:58:17;;;;;;;11.10;9.50;;;;;;;8.12;71.45;98323.11;106931;1276;22640;-82
2023/05/14 01:00:45;;;;;;;11.20;9.90;;;;;;;8.09;71.51;98327.63;106896;1276;24259;-83
2023/05/14 01:03:13;;;;;;;12.40;10.30;;;;;;;8.03;71.82;98326.45;106938;1276;22629;-82
2023/05/14 01:05:51;;;;;;;13.90;11.20;;;;;;;7.95;71.98;98335.00;106918;1276;22527;-82
2023/05/14 01:08:40;;;;;;;12.60;11.30;;;;;;;7.85;71.78;98334.97;106900;1276;24190;-81
2023/05/14 01:11:08;;;;;;;14.00;11.50;;;;;;;7.74;71.62;98338.09;106903;1276;22521;-79
2023/05/14 01:13:56;;;;;;;13.20;11.70;;;;;;;7.65;71.73;98337.50;106787;1276;22595;-80
2023/05/14 01:16:26;;;;;;;12.40;11.20;;;;;;;7.58;71.83;98337.88;106950;1266;22637;-80
2023/05/14 01:18:56;;;;;;;12.40;11.10;;;;;;;7.54;71.66;98338.73;106876;1276;22569;-79
2023/05/14 01:21:37;;;;;;;13.60;12.20;;;;;;;7.48;71.73;98337.98;106925;1276;25469;-79
2023/05/14 01:24:07;;;;;;;12.30;11.10;;;;;;;7.42;71.81;98338.18;106889;1276;24232;-80
2023/05/14 01:26:36;;;;;;;13.00;11.70;;;;;;;7.35;71.77;98337.27;106948;1276;25260;-80
2023/05/14 01:29:25;;;;;;;14.40;12.40;;;;;;;7.26;71.97;98336.45;106914;1276;25303;-80
2023/05/14 01:31:56;;;;;;;14.50;13.00;;;;;;;7.16;71.95;98335.42;106860;1276;22792;-80
2023/05/14 01:34:27;;;;;;;15.80;14.30;;;;;;;7.06;72.37;98335.94;106940;1276;22753;-81
2023/05/14 01:36:56;;;;;;;15.60;14.00;;;;;;;6.97;72.44;98335.55;106898;1276;22518;-81
2023/05/14 01:39:26;;;;;;;15.20;13.60;;;;;;;6.91;72.39;98336.86;106892;1276;22630;-81
2023/05/14 01:41:54;;;;;;;15.10;13.60;;;;;;;6.84;72.31;98334.23;106898;1276;22535;-81
2023/05/14 01:44:23;;;;;;;16.50;14.20;;;;;;;6.81;72.64;98331.76;106870;1276;25493;-81
2023/05/14 01:46:51;;;;;;;18.60;14.80;;;;;;;6.79;72.73;98329.86;106925;1276;22531;-81
2023/05/14 01:49:20;;;;;;;17.40;15.60;;;;;;;6.75;73.10;98333.55;106934;1276;24410;-80
2023/05/14 01:51:48;;;;;;;17.10;15.50;;;;;;;6.69;73.11;98330.37;106882;1276;25385;-80
2023/05/14 01:54:16;;;;;;;18.10;16.30;;;;;;;6.64;73.18;98328.58;106865;1276;22520;-80
2023/05/14 01:56:43;;;;;;;18.10;15.30;;;;;;;6.60;73.21;98327.77;106870;1276;22517;-80
2023/05/14 01:59:11;;;;;;;15.80;14.30;;;;;;;6.59;73.38;98324.61;106865;1276;25390;-81
2023/05/14 02:01:39;;;;;;;15.40;13.70;;;;;;;6.59;73.51;98323.21;106939;1276;22525;-82
2023/05/14 02:04:08;;;;;;;15.80;14.00;;;;;;;6.60;73.59;98321.13;107136;1272;22525;-81
2023/05/14 02:06:36;;;;;;;15.20;13.80;;;;;;;6.57;73.74;98320.73;106777;1276;25290;-79
2023/05/14 02:09:04;;;;;;;16.30;14.60;;;;;;;6.52;73.62;98321.20;107027;1276;24389;-80
2023/05/14 02:11:32;;;;;;;17.00;15.30;;;;;;;6.46;74.01;98319.14;106923;1276;24228;-80
2023/05/14 02:14:00;;;;;;;15.30;13.80;;;;;;;6.44;74.18;98316.14;106866;1276;24311;-79
2023/05/14 02:16:28;;;;;;;14.70;13.40;;;;;;;6.41;74.17;98318.52;106940;1276;25248;-78
2023/05/14 02:18:56;;;;;;;14.50;13.20;;;;;;;6.36;74.16;98316.20;106743;1276;25636;-79
2023/05/14 02:21:24;;;;;;;14.00;12.60;;;;;;;6.35;73.95;98321.29;106747;1276;24376;-78
2023/05/14 02:23:52;;;;;;;13.70;12.30;;;;;;;6.32;74.18;98315.27;106712;1276;22637;-80
2023/05/14 02:26:20;;;;;;;14.60;13.20;;;;;;;6.27;74.52;98314.29;106825;1276;24367;-80
2023/05/14 02:28:48;;;;;;;13.70;12.30;;;;;;;6.25;74.75;98317.27;106941;1276;24234;-80
2023/05/14 02:31:18;;;;;;;14.30;12.90;;;;;;;6.20;75.14;98317.61;106918;1276;22519;-79
2023/05/14 02:33:46;;;;;;;13.60;12.30;;;;;;;6.15;75.04;98317.86;106871;1276;22536;-79
2023/05/14 02:36:14;;;;;;;12.70;11.20;;;;;;;6.13;75.36;98314.65;106910;1276;22551;-79
2023/05/14 02:38:42;;;;;;;12.20;10.40;;;;;;;6.13;75.25;98311.33;106900;1276;22628;-80
2023/05/14 02:41:10;;;;;;;11.90;10.60;;;;;;;6.16;76.62;98305.71;106935;1275;22629;-79
2023/05/14 02:43:38;;;;;;;11.90;10.70;;;;;;;6.17;76.60;98300.48;106971;1275;24193;-79
2023/05/14 02:46:06;;;;;;;11.40;10.30;;;;;;;6.15;76.14;98296.23;106972;1275;22519;-80
2023/05/14 02:48:34;;;;;;;12.60;11.40;;;;;;;6.15;76.20;98293.58;106990;1275;24317;-81
2023/05/14 02:51:02;;;;;;;12.10;10.80;;;;;;;6.18;76.42;98289.57;106779;1275;22538;-81
2023/05/14 02:53:30;;;;;;;11.60;9.30;;;;;;;6.24;76.30;98289.54;106907;1275;24498;-80
2023/05/14 02:55:58;;;;;;;10.00;8.30;;;;;;;6.32;76.96;98294.19;106999;1275;24442;-80
2023/05/14 02:58:26;;;;;;;9.70;8.70;;;;;;;6.42;77.76;98291.02;106997;1275;22666;-82
2023/05/14 03:00:55;;;;;;;11.20;8.90;;;;;;;6.51;77.25;98289.87;106997;1275;22570;-81
2023/05/14 03:03:24;;;;;;;10.30;9.30;;;;;;;6.57;77.75;98287.91;106957;1275;24345;-81
2023/05/14 03:05:53;;;;;;;11.50;10.40;;;;;;;6.60;77.99;98284.66;106942;1275;22649;-81
2023/05/14 03:08:21;;;;;;;15.10;13.70;;;;;;;6.62;79.06;98281.50;107035;1275;22599;-80
2023/05/14 03:10:49;;;;;;;11.30;9.50;;;;;;;6.64;79.36;98275.50;106921;1275;22904;-80
2023/05/14 03:13:18;;;;;;;9.60;8.50;;;;;;;6.66;79.19;98275.58;107002;1275;22626;-80
2023/05/14 03:15:47;;;;;;;9.30;8.40;;;;;;;6.68;79.53;98267.76;106895;1275;22561;-80
2023/05/14 03:18:15;;;;;;;10.30;8.50;;;;;;;6.68;79.96;98256.18;106940;1275;24711;-80
2023/05/14 03:20:43;;;;;;;9.30;8.40;;;;;;;6.68;79.23;98256.56;106948;1275;25638;-80
2023/05/14 03:23:11;;;;;;;8.60;7.80;;;;;;;6.70;78.53;98258.92;107024;1275;22623;-80
2023/05/14 03:25:40;;;;;;;9.70;8.20;;;;;;;6.74;79.07;98254.21;107004;1275;22633;-79
2023/05/14 03:28:08;;;;;;;9.50;8.20;;;;;;;6.79;78.88;98254.08;106954;1275;22624;-80
2023/05/14 03:30:36;;;;;;;11.90;8.40;;;;;;;6.84;78.67;98259.49;106949;1275;22532;-80
2023/05/14 03:33:04;;;;;;;12.20;11.00;;;;;;;6.92;78.54;98265.92;106647;1275;25780;-80
2023/05/14 03:35:33;;;;;;;15.80;12.50;;;;;;;7.02;78.61;98269.80;106979;1275;25346;-79
2023/05/14 03:38:00;;;;;;;14.20;12.90;;;;;;;7.08;78.49;98279.52;106961;1269;24235;-80
2023/05/14 03:40:29;;;;;;;12.90;11.60;;;;;;;7.11;78.24;98284.44;106962;1275;24205;-80
2023/05/14 03:42:57;;;;;;;13.60;12.10;;;;;;;7.15;78.46;98281.67;106969;1275;25610;-79
2023/05/14 03:45:27;;;;;;;16.40;13.00;;;;;;;7.16;78.06;98273.67;106955;1263;22543;-79
2023/05/14 03:47:55;;;;;;;15.80;14.10;;;;;;;7.15;77.93;98264.56;106880;1275;22968;-79
2023/05/14 03:50:24;;;;;;;16.00;13.90;;;;;;;7.18;77.92;98266.01;106974;1275;24403;-81
2023/05/14 03:52:53;;;;;;;13.40;12.10;;;;;;;7.23;78.06;98256.20;106874;1275;22550;-80
2023/05/14 03:55:21;;;;;;;12.90;11.60;;;;;;;7.29;78.12;98255.30;106972;1275;22769;-81
2023/05/14 03:57:49;;;;;;;13.40;11.50;;;;;;;7.34;78.06;98258.13;106970;1275;22527;-81
2023/05/14 04:00:18;;;;;;;14.40;13.00;;;;;;;7.38;78.25;98260.16;106889;1275;23906;-81
2023/05/14 04:02:45;;;;;;;15.70;14.30;;;;;;;7.40;78.11;98258.29;106950;1275;23902;-81
2023/05/14 04:05:14;;;;;;;24.80;22.40;;;;;;;7.41;78.39;98256.78;106990;1275;22630;-80
2023/05/14 04:07:42;;;;;;;19.60;17.80;;;;;;;7.42;78.30;98253.36;106984;1275;22531;-80
2023/05/14 04:10:10;;;;;;;16.60;14.90;;;;;;;7.48;78.25;98255.07;106943;1275;22640;-79
2023/05/14 04:12:38;;;;;;;18.00;16.10;;;;;;;7.58;78.43;98254.63;106983;1275;25469;-80
2023/05/14 04:15:06;;;;;;;15.40;14.00;;;;;;;7.67;78.46;98253.76;106996;1275;25241;-80
2023/05/14 04:17:35;;;;;;;16.10;14.50;;;;;;;7.71;78.40;98258.52;107018;1275;25325;-79
2023/05/14 04:20:04;;;;;;;18.20;16.50;;;;;;;7.74;78.37;98259.60;106978;1275;22519;-80
2023/05/14 04:22:32;;;;;;;19.30;17.40;;;;;;;7.76;78.42;98257.92;107086;1275;23916;-80
2023/05/14 04:25:00;;;;;;;19.80;18.10;;;;;;;7.79;78.48;98259.27;107025;1275;22545;-81
2023/05/14 04:27:28;;;;;;;17.90;16.20;;;;;;;7.86;78.97;98259.19;107041;1275;22610;-80
2023/05/14 04:29:56;;;;;;;18.30;16.50;;;;;;;7.90;79.85;98259.08;107074;1275;22577;-82
2023/05/14 04:32:24;;;;;;;14.90;13.40;;;;;;;7.95;79.61;98260.73;107033;1275;22653;-81
2023/05/14 04:34:52;;;;;;;13.90;12.70;;;;;;;8.01;79.39;98260.92;107135;1275;22532;-81
2023/05/14 04:37:20;;;;;;;9.60;8.60;;;;;;;8.11;79.70;98257.41;107087;1275;22777;-81
2023/05/14 04:39:48;;;;;;;10.20;9.20;;;;;;;8.22;79.90;98254.73;107128;1275;22525;-82
2023/05/14 04:42:16;;;;;;;9.30;8.40;;;;;;;8.34;79.60;98260.60;107045;1275;22541;-79
2023/05/14 04:44:44;;;;;;;13.10;8.80;;;;;;;8.46;79.91;98264.88;107095;1275;22534;-80
2023/05/14 04:47:12;;;;;;;9.80;8.90;;;;;;;8.54;80.12;98267.20;107084;1275;22743;-78
2023/05/14 04:49:40;;;;;;;10.60;8.90;;;;;;;8.61;79.83;98271.09;107019;1275;22702;-80
2023/05/14 04:52:08;;;;;;;9.80;8.80;;;;;;;8.69;79.87;98267.02;107017;1275;25326;-80
2023/05/14 04:54:36;;;;;;;10.50;9.40;;;;;;;8.75;79.91;98271.16;107111;1275;22634;-80
2023/05/14 04:57:04;;;;;;;9.00;8.10;;;;;;;8.82;79.68;98266.45;107081;1275;22809;-80
2023/05/14 04:59:32;;;;;;;8.70;7.80;;;;;;;8.95;79.82;98260.58;107017;1275;24364;-79
2023/05/14 05:02:00;;;;;;;8.80;7.90;;;;;;;9.07;79.85;98255.44;107049;1275;22644;-79
2023/05/14 05:04:28;;;;;;;9.40;8.10;;;;;;;9.18;80.08;98249.40;106979;1275;22729;-81
2023/05/14 05:06:56;;;;;;;10.00;8.90;;;;;;;9.29;80.02;98252.15;106898;1275;22511;-80
2023/05/14 05:09:24;;;;;;;11.50;9.30;;;;;;;9.40;79.62;98250.17;107078;1275;25390;-81
2023/05/14 05:11:52;;;;;;;9.30;8.40;;;;;;;9.50;79.69;98249.56;107124;1275;22646;-83
2023/05/14 05:14:20;;;;;;;10.80;9.20;;;;;;;9.58;79.21;98250.39;107204;1275;24274;-83
2023/05/14 05:16:48;;;;;;;9.60;8.70;;;;;;;9.66;79.18;98249.84;107101;1275;25220;-81
2023/05/14 05:19:16;;;;;;;8.10;7.20;;;;;;;9.74;79.04;98251.34;106975;1275;22534;-81
2023/05/14 05:21:44;;;;;;;10.00;7.70;;;;;;;9.83;79.28;98250.20;107033;1275;22643;-87
2023/05/14 05:24:12;;;;;;;8.90;8.00;;;;;;;9.94;79.30;98243.80;107533;1275;22514;-82
2023/05/14 05:26:40;;;;;;;7.90;7.10;;;;;;;10.07;79.16;98240.75;107507;1275;24272;-81
2023/05/14 05:29:08;;;;;;;9.40;7.20;;;;;;;10.17;79.07;98236.22;107216;1275;22488;-84
2023/05/14 05:31:36;;;;;;;8.50;7.70;;;;;;;10.28;78.55;98232.33;107171;1275;25318;-82
2023/05/14 05:34:04;;;;;;;8.40;7.60;;;;;;;10.34;78.14;98230.70;107084;1275;24091;-84
2023/05/14 05:36:32;;;;;;;8.50;7.10;;;;;;;10.39;77.96;98229.92;107082;1275;22729;-83
2023/05/14 05:39:00;;;;;;;8.40;7.50;;;;;;;10.43;77.66;98225.70;107081;1275;24361;-82
2023/05/14 05:41:29;;;;;;;9.10;6.90;;;;;;;10.53;77.47;98226.09;107068;1275;24243;-85
2023/05/14 05:43:57;;;;;;;11.00;6.80;;;;;;;10.65;77.32;98223.89;107079;1275;22618;-85
2023/05/14 05:46:24;;;;;;;7.10;6.40;;;;;;;10.76;77.00;98227.72;107090;1275;24434;-84
2023/05/14 05:48:52;;;;;;;7.60;6.80;;;;;;;10.83;76.80;98226.85;107110;1275;22649;-85
2023/05/14 05:51:20;;;;;;;8.90;6.90;;;;;;;10.89;76.49;98231.18;106796;1275;170861;-84
2023/05/14 05:53:48;;;;;;;7.70;7.00;;;;;;;10.94;76.11;98239.20;107074;1275;22744;-83
2023/05/14 05:56:16;;;;;;;7.10;6.20;;;;;;;10.99;75.81;98238.34;107218;1275;25563;-82
2023/05/14 05:58:44;;;;;;;8.20;6.90;;;;;;;11.02;75.52;98241.09;106848;1275;22528;-81
2023/05/14 06:01:12;;;;;;;7.70;7.00;;;;;;;11.12;75.89;98243.70;106835;1275;26634;-81
2023/05/14 06:03:40;;;;;;;10.90;6.90;;;;;;;11.23;75.61;98244.59;106807;1275;22634;-80
2023/05/14 06:06:08;;;;;;;7.80;7.00;;;;;;;11.34;75.25;98246.63;106838;1275;26236;-81
2023/05/14 06:08:36;;;;;;;8.40;7.20;;;;;;;11.44;75.30;98244.68;106824;1275;22552;-81
2023/05/14 06:11:04;;;;;;;6.90;6.10;;;;;;;11.54;74.91;98241.05;106831;1275;24215;-80
2023/05/14 06:13:32;;;;;;;7.00;5.70;;;;;;;11.61;74.23;98236.02;106979;1275;24072;-80
2023/05/14 06:16:00;;;;;;;7.30;6.50;;;;;;;11.67;74.58;98233.15;106911;1275;26695;-79
2023/05/14 06:18:28;;;;;;;7.20;6.40;;;;;;;11.81;74.64;98227.18;106891;1275;24365;-78
2023/05/14 06:20:58;;;;;;;9.90;6.70;;;;;;;11.96;74.57;98217.98;106962;1275;22531;-77
2023/05/14 06:23:27;;;;;;;6.00;5.40;;;;;;;12.10;73.98;98215.16;106998;1275;22892;-76
2023/05/14 06:25:54;;;;;;;6.70;5.90;;;;;;;12.29;73.70;98214.77;106840;1275;24340;-75
2023/05/14 06:28:22;;;;;;;6.50;5.70;;;;;;;12.45;73.08;98213.84;106816;1275;24221;-76
2023/05/14 06:30:52;;;;;;;5.80;5.20;;;;;;;12.50;72.45;98216.33;106839;1275;22654;-76
2023/05/14 06:33:28;;;;;;;6.90;5.50;;;;;;;12.60;72.66;98221.69;106837;1275;24305;-75
2023/05/14 06:36:02;;;;;;;6.90;5.60;;;;;;;12.70;72.46;98219.43;106870;1275;25774;-76
2023/05/14 06:38:30;;;;;;;6.60;5.80;;;;;;;12.81;72.51;98222.04;106835;1275;22589;-76
2023/05/14 06:40:58;;;;;;;6.60;5.70;;;;;;;12.97;72.37;98222.32;106892;1275;23918;-76
2023/05/14 06:43:27;;;;;;;6.30;4.90;;;;;;;13.07;72.18;98216.61;106842;1275;24448;-76
2023/05/14 06:45:55;;;;;;;7.10;5.60;;;;;;;13.30;71.69;98216.32;106821;1275;23006;-76
2023/05/14 06:48:23;;;;;;;6.60;5.70;;;;;;;13.38;71.47;98215.04;106820;1275;23912;-77
2023/05/14 06:50:51;;;;;;;6.10;5.40;;;;;;;13.53;70.98;98221.42;106844;1275;22787;-77
2023/05/14 06:53:19;;;;;;;6.30;5.60;;;;;;;13.67;70.53;98220.30;106980;1275;23925;-77
2023/05/14 06:55:47;;;;;;;6.30;5.20;;;;;;;13.79;69.85;98221.34;107015;1263;25325;-77
2023/05/14 06:58:15;;;;;;;8.30;5.80;;;;;;;13.91;70.15;98220.12;107000;1275;23979;-77
2023/05/14 07:00:43;;;;;;;6.80;5.60;;;;;;;14.03;69.74;98215.48;106837;1275;24321;-76
2023/05/14 07:03:11;;;;;;;8.70;5.30;;;;;;;14.16;69.21;98213.46;106806;1275;22613;-76
2023/05/14 07:05:40;;;;;;;8.80;6.00;;;;;;;14.28;68.81;98210.88;106827;1275;22557;-76
2023/05/14 07:08:08;;;;;;;8.20;6.20;;;;;;;14.37;68.31;98212.80;106851;1275;24685;-76
2023/05/14 07:10:36;;;;;;;7.90;6.10;;;;;;;14.41;68.10;98208.13;106965;1275;22811;-77
2023/05/14 07:13:04;;;;;;;9.00;6.00;;;;;;;14.50;68.00;98208.14;106965;1275;22529;-77
2023/05/14 07:15:33;;;;;;;7.30;5.20;;;;;;;14.60;67.78;98207.64;107010;1275;25493;-77
2023/05/14 07:18:01;;;;;;;6.50;5.50;;;;;;;14.73;67.42;98210.02;106838;1275;22526;-77
2023/05/14 07:20:29;;;;;;;8.00;5.70;;;;;;;14.82;67.03;98212.36;106818;1275;22547;-77
2023/05/14 07:22:57;;;;;;;6.10;5.30;;;;;;;14.90;66.96;98218.16;107000;1275;22587;-78
2023/05/14 07:25:25;;;;;;;6.90;5.30;;;;;;;15.08;66.87;98227.98;107007;1275;22590;-77
2023/05/14 07:27:52;;;;;;;9.60;5.60;;;;;;;15.25;66.18;98228.25;106952;1275;22591;-77
2023/05/14 07:30:21;;;;;;;6.00;5.40;;;;;;;15.35;64.85;98233.05;106857;1275;23038;-77
2023/05/14 07:32:49;;;;;;;7.80;5.30;;;;;;;15.41;64.37;98230.59;106794;1275;25700;-77
2023/05/14 07:35:17;;;;;;;6.70;4.30;;;;;;;15.49;64.22;98232.66;106970;1275;24328;-78
2023/05/14 07:37:45;;;;;;;5.80;4.30;;;;;;;15.51;62.91;98238.88;106989;1275;22644;-77
2023/05/14 07:40:13;;;;;;;5.30;4.20;;;;;;;15.52;61.76;98239.80;107004;1275;22631;-76
2023/05/14 07:42:41;;;;;;;7.10;4.70;;;;;;;15.57;61.43;98241.33;106981;1275;25109;-77
2023/05/14 07:45:10;;;;;;;6.70;5.10;;;;;;;15.65;60.59;98243.40;106983;1275;22530;-77
2023/05/14 07:47:38;;;;;;;7.20;5.10;;;;;;;15.77;61.07;98237.92;106994;1275;22804;-77
2023/05/14 07:50:07;;;;;;;6.00;4.70;;;;;;;15.86;60.40;98228.20;106898;1275;22652;-78
2023/05/14 07:52:34;;;;;;;6.40;5.00;;;;;;;15.91;59.59;98222.20;106992;1275;25465;-78
2023/05/14 07:55:03;;;;;;;6.20;5.10;;;;;;;15.97;60.92;98222.84;106979;1275;22633;-77
2023/05/14 07:57:31;;;;;;;5.10;4.60;;;;;;;16.15;61.16;98211.29;106943;1275;24355;-76
2023/05/14 07:59:59;;;;;;;7.80;4.70;;;;;;;16.26;60.96;98206.30;106955;1275;22636;-76
2023/05/14 08:02:27;;;;;;;5.10;4.40;;;;;;;16.32;59.84;98208.45;106972;1275;23884;-76
2023/05/14 08:04:55;;;;;;;8.20;4.50;;;;;;;16.31;59.12;98204.87;107042;1275;25214;-78
2023/05/14 08:07:23;;;;;;;5.40;4.80;;;;;;;16.36;59.64;98197.20;107163;1275;24396;-77
2023/05/14 08:09:51;;;;;;;6.10;4.30;;;;;;;16.41;59.42;98199.03;107044;1275;22532;-77
2023/05/14 08:12:19;;;;;;;7.40;5.00;;;;;;;16.51;59.26;98200.65;107100;1275;23255;-78
2023/05/14 08:14:47;;;;;;;5.90;4.60;;;;;;;16.63;58.55;98193.16;107081;1275;25467;-78
2023/05/14 08:17:15;;;;;;;7.60;4.80;;;;;;;16.76;58.66;98189.86;107152;1275;22548;-79
2023/05/14 08:19:43;;;;;;;6.90;5.30;;;;;;;16.92;57.88;98185.02;107150;1275;24260;-77
2023/05/14 08:22:11;;;;;;;7.20;4.60;;;;;;;17.05;57.59;98184.16;107155;1275;22533;-77
2023/05/14 08:24:41;;;;;;;7.40;5.40;;;;;;;17.18;56.91;98180.67;107156;1275;23279;-77
2023/05/14 08:27:09;;;;;;;5.90;5.00;;;;;;;17.28;56.07;98175.17;107201;1275;22521;-78
2023/05/14 08:29:37;;;;;;;7.90;5.20;;;;;;;17.37;56.45;98168.26;107028;1275;25326;-78
2023/05/14 08:32:05;;;;;;;6.40;4.90;;;;;;;17.42;56.38;98160.73;107442;1275;23344;-79
2023/05/14 08:34:50;;;;;;;6.30;4.90;;;;;;;17.42;55.93;98156.67;106983;1275;22534;-78
2023/05/14 08:37:18;;;;;;;6.50;4.60;;;;;;;17.43;54.49;98159.39;106980;1275;22664;-78
2023/05/14 08:39:46;;;;;;;5.60;5.00;;;;;;;17.53;55.02;98161.39;107024;1275;22657;-76
2023/05/14 08:42:20;;;;;;;6.00;5.10;;;;;;;17.62;55.21;98160.38;106867;1275;22526;-77
2023/05/14 08:44:52;;;;;;;7.90;5.40;;;;;;;17.75;53.82;98156.20;106894;1275;22573;-76
2023/05/14 08:47:21;;;;;;;8.10;5.70;;;;;;;17.70;52.71;98152.79;106865;1275;24434;-76
2023/05/14 08:50:01;;;;;;;8.00;5.10;;;;;;;17.71;54.15;98153.83;106900;1275;23940;-76
2023/05/14 08:52:29;;;;;;;8.40;5.10;;;;;;;17.84;52.05;98149.60;106993;1275;24191;-77
2023/05/14 08:55:00;;;;;;;8.00;5.10;;;;;;;17.86;52.49;98149.77;107009;1275;25395;-79
2023/05/14 08:57:30;;;;;;;5.50;4.50;;;;;;;18.03;52.51;98152.96;107059;1275;22643;-77
2023/05/14 08:59:59;;;;;;;5.20;4.20;;;;;;;18.18;52.41;98150.05;107430;1275;22566;-77
2023/05/14 09:02:30;;;;;;;7.10;4.50;;;;;;;18.31;52.20;98149.98;107419;1275;22579;-77
2023/05/14 09:05:00;;;;;;;6.20;4.40;;;;;;;18.41;52.11;98144.29;107240;1275;22652;-78
2023/05/14 09:07:28;;;;;;;7.10;4.50;;;;;;;18.53;51.86;98144.16;107056;1275;22572;-77
2023/05/14 09:09:56;;;;;;;6.40;4.30;;;;;;;18.66;52.06;98134.33;106981;1275;22792;-77
2023/05/14 09:12:24;;;;;;;6.10;4.30;;;;;;;18.79;51.87;98130.30;107029;1275;24192;-77
2023/05/14 09:14:52;;;;;;;5.70;5.10;;;;;;;18.82;50.03;98129.27;106963;1275;22738;-78
2023/05/14 09:17:20;;;;;;;8.10;4.70;;;;;;;18.86;50.66;98129.23;107042;1275;22804;-78
2023/05/14 09:19:48;;;;;;;6.50;4.10;;;;;;;18.98;49.78;98128.23;107046;1275;25465;-78
2023/05/14 09:22:17;;;;;;;7.50;4.10;;;;;;;19.04;49.52;98129.95;107193;1275;22570;-78
2023/05/14 09:24:45;;;;;;;5.90;4.30;;;;;;;19.13;49.72;98125.13;107070;1275;24403;-78
2023/05/14 09:27:20;;;;;;;5.90;4.50;;;;;;;19.30;49.91;98128.45;107116;1275;25447;-78
2023/05/14 09:29:48;;;;;;;6.00;4.40;;;;;;;19.42;49.34;98125.42;107124;1264;25469;-79
2023/05/14 09:32:16;;;;;;;6.50;4.60;;;;;;;19.47;48.47;98124.90;107147;1275;25597;-80
2023/05/14 09:34:46;;;;;;;6.00;4.20;;;;;;;19.44;48.39;98120.17;107092;1275;22641;-80
2023/05/14 09:37:14;;;;;;;6.50;4.30;;;;;;;19.46;48.24;98120.83;107115;1275;22532;-79
2023/05/14 09:39:42;;;;;;;6.00;4.50;;;;;;;19.56;46.92;98125.67;107107;1275;24199;-79
2023/05/14 09:42:10;;;;;;;7.10;4.50;;;;;;;19.52;47.56;98131.07;107093;1275;23229;-81
2023/05/14 09:44:38;;;;;;;6.40;5.40;;;;;;;19.63;47.60;98128.38;107185;1275;22540;-80
2023/05/14 09:47:06;;;;;;;6.80;5.00;;;;;;;19.70;46.22;98127.16;106950;1275;26646;-78
2023/05/14 09:49:34;;;;;;;13.50;4.70;;;;;;;19.75;46.82;98123.30;107087;1275;24245;-79
2023/05/14 09:52:05;;;;;;;7.70;4.20;;;;;;;19.90;47.37;98117.65;107141;1275;23915;-79
2023/05/14 09:54:33;;;;;;;9.00;4.90;;;;;;;20.05;46.69;98111.27;107065;1275;22633;-79
2023/05/14 09:57:01;;;;;;;5.20;4.20;;;;;;;20.07;46.65;98107.23;107022;1275;24286;-79
2023/05/14 09:59:29;;;;;;;6.30;4.70;;;;;;;20.16;45.88;98106.21;107144;1275;22529;-79
2023/05/14 10:01:58;;;;;;;5.90;4.30;;;;;;;20.21;46.23;98101.07;107021;1275;24449;-79
2023/05/14 10:04:26;;;;;;;5.60;4.50;;;;;;;20.20;46.05;98100.66;106808;1275;22778;-79
2023/05/14 10:06:55;;;;;;;6.20;4.50;;;;;;;20.26;45.13;98095.09;107130;1275;22630;-79
2023/05/14 10:09:26;;;;;;;6.70;3.90;;;;;;;20.21;44.66;98092.39;107143;1275;22791;-78
2023/05/14 10:11:58;;;;;;;6.00;4.60;;;;;;;20.17;45.47;98089.64;107130;1275;24358;-78
2023/05/14 10:14:34;;;;;;;5.10;4.00;;;;;;;20.27;45.48;98088.39;107147;1275;22520;-78
2023/05/14 10:17:05;;;;;;;6.80;3.90;;;;;;;20.42;44.90;98083.93;107169;1275;22788;-79
2023/05/14 10:19:36;;;;;;;7.50;5.50;;;;;;;20.47;44.67;98080.27;107188;1275;22572;-79
2023/05/14 10:22:06;;;;;;;7.70;5.30;;;;;;;20.51;44.94;98080.44;107070;1275;24377;-79
2023/05/14 10:24:37;;;;;;;5.30;3.70;;;;;;;20.68;44.69;98081.73;107187;1275;25389;-79
2023/05/14 10:27:05;;;;;;;6.80;4.40;;;;;;;20.71;44.33;98080.38;107145;1275;23896;-79
2023/05/14 10:29:36;;;;;;;5.20;3.70;;;;;;;20.78;43.46;98075.84;107087;1275;25686;-79
2023/05/14 10:32:06;;;;;;;8.20;3.80;;;;;;;20.80;42.50;98072.35;107175;1275;24387;-80
2023/05/14 10:34:39;;;;;;;4.80;3.80;;;;;;;20.75;42.00;98068.89;107199;1275;25275;-80
2023/05/14 10:37:20;;;;;;;5.10;4.30;;;;;;;20.72;42.43;98065.95;107114;1275;24227;-79
2023/05/14 10:39:53;;;;;;;4.90;3.90;;;;;;;20.80;42.80;98059.94;107187;1275;24398;-79
2023/05/14 10:42:24;;;;;;;6.40;3.90;;;;;;;20.83;42.12;98060.44;107113;1275;22848;-79
2023/05/14 10:45:01;;;;;;;5.50;3.50;;;;;;;20.74;42.20;98053.72;107160;1275;22655;-79
2023/05/14 10:47:30;;;;;;;5.90;3.50;;;;;;;20.77;42.59;98046.02;107128;1275;24219;-79
2023/05/14 10:50:04;;;;;;;5.70;3.80;;;;;;;20.96;42.42;98045.73;107508;1275;25594;-79
2023/05/14 10:52:33;;;;;;;4.30;3.20;;;;;;;21.10;41.93;98041.67;107243;1275;25609;-79
2023/05/14 10:55:08;;;;;;;8.60;7.20;;;;;;;21.13;41.46;98040.02;107146;1275;22639;-80
2023/05/14 10:57:40;;;;;;;4.90;3.20;;;;;;;21.14;41.03;98036.66;107158;1275;24361;-80
2023/05/14 11:00:11;;;;;;;5.50;3.50;;;;;;;21.07;40.74;98034.36;107097;1275;22721;-81
2023/05/14 11:02:41;;;;;;;3.60;3.00;;;;;;;21.05;40.84;98034.55;107176;1275;22649;-80
2023/05/14 11:05:12;;;;;;;5.60;3.50;;;;;;;21.11;41.00;98023.78;107514;1275;22577;-80
2023/05/14 11:07:43;;;;;;;4.20;3.20;;;;;;;21.25;40.89;98022.52;107708;1275;22627;-80
2023/05/14 11:10:20;;;;;;;4.70;3.10;;;;;;;21.34;40.40;98025.17;107232;1275;25688;-79
2023/05/14 11:12:51;;;;;;;4.60;2.90;;;;;;;21.38;40.80;98024.95;107040;1275;22573;-79
2023/05/14 11:15:24;;;;;;;4.10;2.80;;;;;;;21.48;41.14;98023.86;107159;1275;23705;-80
2023/05/14 11:17:53;;;;;;;5.00;2.90;;;;;;;21.59;40.79;98017.77;107047;1275;24542;-77
2023/05/14 11:20:21;;;;;;;3.50;2.90;;;;;;;21.53;40.13;98010.86;107047;1275;22791;-78
2023/05/14 11:22:52;;;;;;;4.20;3.00;;;;;;;21.48;40.23;98012.20;106896;1275;22517;-77
2023/05/14 11:25:21;;;;;;;4.20;3.20;;;;;;;21.44;40.12;98007.36;106885;1252;23010;-77
2023/05/14 11:27:49;;;;;;;5.20;3.20;;;;;;;21.51;40.34;98003.77;106867;1275;22658;-77
2023/05/14 11:30:19;;;;;;;3.40;2.50;;;;;;;21.65;39.84;98004.54;106854;1275;22531;-78
2023/05/14 11:32:48;;;;;;;6.20;2.60;;;;;;;21.75;39.33;97999.27;106896;1275;24442;-78